createdAt,value
2023-05-22T00:00:39.376Z,10.63
2023-05-22T00:03:08.387Z,12.13
2023-05-22T00:05:38.833Z,10.60
2023-05-22T00:08:10.736Z,11.33
2023-05-22T00:10:38.491Z,12.20
2023-05-22T00:13:06.216Z,10.77
2023-05-22T00:15:35.418Z,12.13
2023-05-22T00:18:03.955Z,11.43
2023-05-22T00:20:31.537Z,11.10
2023-05-22T00:23:01.132Z,10.80
2023-05-22T00:25:28.723Z,11.47
2023-05-22T00:27:56.299Z,10.50
2023-05-22T00:30:23.869Z,11.10
2023-05-22T00:32:52.778Z,11.70
2023-05-22T00:35:20.535Z,11.67
2023-05-22T00:37:48.049Z,11.43
2023-05-22T00:40:16.627Z,11.30
2023-05-22T00:42:44.404Z,12.03
2023-05-22T00:45:12.696Z,10.37
2023-05-22T00:47:40.477Z,10.90
2023-05-22T00:50:11.396Z,10.23
2023-05-22T00:52:41.272Z,11.40
2023-05-22T00:55:10.489Z,10.80
2023-05-22T00:57:40.252Z,11.30
2023-05-22T01:00:10.884Z,11.33
2023-05-22T01:02:38.688Z,11.80
2023-05-22T01:05:07.855Z,12.40
2023-05-22T01:07:37.648Z,11.20
2023-05-22T01:10:07.107Z,11.53
2023-05-22T01:12:39.742Z,10.70
2023-05-22T01:15:13.980Z,11.63
2023-05-22T01:17:48.174Z,11.23
2023-05-22T01:20:22.379Z,11.90
2023-05-22T01:23:25.374Z,11.63
2023-05-22T01:26:04.770Z,11.83
2023-05-22T01:28:43.652Z,12.10
2023-05-22T01:31:14.595Z,11.90
2023-05-22T01:33:43.621Z,12.93
2023-05-22T01:36:12.692Z,12.30
2023-05-22T01:38:40.271Z,11.30
2023-05-22T01:41:07.840Z,12.07
2023-05-22T01:43:38.443Z,12.03
2023-05-22T01:46:06.291Z,12.20
2023-05-22T01:48:36.297Z,13.00
2023-05-22T01:51:06.721Z,11.87
2023-05-22T01:53:36.512Z,12.27
2023-05-22T01:56:06.204Z,11.67
2023-05-22T01:58:40.018Z,12.67
2023-05-22T02:01:09.240Z,11.20
2023-05-22T02:03:40.923Z,11.50
2023-05-22T02:06:10.164Z,11.60
2023-05-22T02:08:38.726Z,12.40
2023-05-22T02:11:06.689Z,11.63
2023-05-22T02:13:34.637Z,11.97
2023-05-22T02:16:03.898Z,13.40
2023-05-22T02:18:31.725Z,12.50
2023-05-22T02:21:02.703Z,12.53
2023-05-22T02:23:30.269Z,11.43
2023-05-22T02:25:57.917Z,12.83
2023-05-22T02:28:25.535Z,13.70
2023-05-22T02:30:53.134Z,12.00
2023-05-22T02:33:20.724Z,12.33
2023-05-22T02:35:48.278Z,12.30
2023-05-22T02:38:17.138Z,11.97
2023-05-22T02:40:44.792Z,12.30
2023-05-22T02:43:12.343Z,13.27
2023-05-22T02:45:39.828Z,12.70
2023-05-22T02:48:07.521Z,12.33
2023-05-22T02:50:35.055Z,13.70
2023-05-22T02:53:02.542Z,12.93
2023-05-22T02:55:31.442Z,12.43
2023-05-22T02:57:58.946Z,11.40
2023-05-22T03:00:26.524Z,12.47
2023-05-22T03:02:54.163Z,12.77
2023-05-22T03:05:21.840Z,11.67
2023-05-22T03:07:49.908Z,13.00
2023-05-22T03:10:17.401Z,12.40
2023-05-22T03:12:46.267Z,11.80
2023-05-22T03:15:13.764Z,13.03
2023-05-22T03:17:41.373Z,13.47
2023-05-22T03:20:10.135Z,11.57
2023-05-22T03:22:37.921Z,13.60
2023-05-22T03:25:09.273Z,11.70
2023-05-22T03:27:36.993Z,11.67
2023-05-22T03:30:07.338Z,11.73
2023-05-22T03:32:37.323Z,11.80
2023-05-22T03:35:06.097Z,12.47
2023-05-22T03:37:33.826Z,11.60
2023-05-22T03:40:01.349Z,12.80
2023-05-22T03:42:28.852Z,13.33
2023-05-22T03:44:56.354Z,10.90
2023-05-22T03:47:25.232Z,13.00
2023-05-22T03:49:52.760Z,11.60
2023-05-22T03:52:20.398Z,11.37
2023-05-22T03:54:47.970Z,12.10
2023-05-22T03:57:16.316Z,11.40
2023-05-22T03:59:43.791Z,10.17
2023-05-22T04:02:12.872Z,10.50
2023-05-22T04:04:41.875Z,12.97
2023-05-22T04:07:09.445Z,11.73
2023-05-22T04:09:36.996Z,12.07
2023-05-22T04:12:05.145Z,12.80
2023-05-22T04:14:32.772Z,11.03
2023-05-22T04:17:00.478Z,10.20
2023-05-22T04:19:29.948Z,10.90
2023-05-22T04:21:59.330Z,10.37
2023-05-22T04:24:27.537Z,10.57
2023-05-22T04:26:55.068Z,10.93
2023-05-22T04:29:22.777Z,10.07
2023-05-22T04:31:50.369Z,11.23
2023-05-22T04:34:18.493Z,10.30
2023-05-22T04:36:46.974Z,11.10
2023-05-22T04:39:15.970Z,10.47
2023-05-22T04:41:43.447Z,10.73
2023-05-22T04:44:10.958Z,12.03
2023-05-22T04:46:38.634Z,11.87
2023-05-22T04:49:06.203Z,11.27
2023-05-22T04:51:36.008Z,10.20
2023-05-22T04:54:03.565Z,10.83
2023-05-22T04:56:36.768Z,11.23
2023-05-22T04:59:08.984Z,11.57
2023-05-22T05:01:37.863Z,11.70
2023-05-22T05:04:05.978Z,9.80
2023-05-22T05:06:34.662Z,11.07
2023-05-22T05:09:02.226Z,11.00
2023-05-22T05:11:29.835Z,10.73
2023-05-22T05:13:58.655Z,10.40
2023-05-22T05:16:26.355Z,11.37
2023-05-22T05:18:55.569Z,12.30
2023-05-22T05:21:27.706Z,10.70
2023-05-22T05:23:55.291Z,11.60
2023-05-22T05:26:24.045Z,11.70
2023-05-22T05:28:51.623Z,11.10
2023-05-22T05:31:20.872Z,10.90
2023-05-22T05:33:48.880Z,10.33
2023-05-22T05:36:17.071Z,10.50
2023-05-22T05:38:44.574Z,10.00
2023-05-22T05:41:12.088Z,10.10
2023-05-22T05:43:39.609Z,10.20
2023-05-22T05:46:07.505Z,9.53
2023-05-22T05:48:36.436Z,11.73
2023-05-22T05:51:04.985Z,9.77
2023-05-22T05:53:32.792Z,10.20
2023-05-22T05:56:00.332Z,9.60
2023-05-22T05:58:27.851Z,10.20
2023-05-22T06:00:55.457Z,9.80
2023-05-22T06:03:25.508Z,10.40
2023-05-22T06:05:54.648Z,10.30
2023-05-22T06:08:22.531Z,10.80
2023-05-22T06:10:50.064Z,9.90
2023-05-22T06:13:17.562Z,10.53
2023-05-22T06:15:45.105Z,9.73
2023-05-22T06:18:13.629Z,9.60
2023-05-22T06:20:41.431Z,8.50
2023-05-22T06:23:11.004Z,9.33
2023-05-22T06:25:39.785Z,9.17
2023-05-22T06:28:07.348Z,10.80
2023-05-22T06:30:40.135Z,10.57
2023-05-22T06:33:08.089Z,10.40
2023-05-22T06:35:35.739Z,9.53
2023-05-22T06:38:03.270Z,9.97
2023-05-22T06:40:32.196Z,8.77
2023-05-22T06:42:59.833Z,9.60
2023-05-22T06:45:27.355Z,9.40
2023-05-22T06:47:55.475Z,9.90
2023-05-22T06:50:23.232Z,8.90
2023-05-22T06:52:50.825Z,9.13
2023-05-22T06:55:18.375Z,8.40
2023-05-22T06:57:47.206Z,9.13
2023-05-22T07:00:15.467Z,10.37
2023-05-22T07:02:43.181Z,10.10
2023-05-22T07:05:10.736Z,9.03
2023-05-22T07:07:38.302Z,9.40
2023-05-22T07:10:07.083Z,8.97
2023-05-22T07:12:34.679Z,8.73
2023-05-22T07:15:03.616Z,9.87
2023-05-22T07:17:31.750Z,8.43
2023-05-22T07:19:59.269Z,9.17
2023-05-22T07:22:26.986Z,8.20
2023-05-22T07:24:54.508Z,8.40
2023-05-22T07:27:22.018Z,8.90
2023-05-22T07:29:49.850Z,9.23
2023-05-22T07:32:18.724Z,9.27
2023-05-22T07:34:46.256Z,8.97
2023-05-22T07:37:14.759Z,9.97
2023-05-22T07:39:42.272Z,9.43
2023-05-22T07:42:10.670Z,10.27
2023-05-22T07:44:38.232Z,9.57
2023-05-22T07:47:06.409Z,10.73
2023-05-22T07:49:35.338Z,9.30
2023-05-22T07:52:02.910Z,9.27
2023-05-22T07:54:30.536Z,9.50
2023-05-22T07:56:58.073Z,8.90
2023-05-22T07:59:25.910Z,9.90
2023-05-22T08:01:53.739Z,9.10
2023-05-22T08:04:21.759Z,9.90
2023-05-22T08:06:50.803Z,8.50
2023-05-22T08:09:18.690Z,8.60
2023-05-22T08:11:46.240Z,8.73
2023-05-22T08:14:13.751Z,8.57
2023-05-22T08:16:41.310Z,8.90
2023-05-22T08:19:09.314Z,8.20
2023-05-22T08:21:37.467Z,10.03
2023-05-22T08:24:07.032Z,10.00
2023-05-22T08:26:34.682Z,10.60
2023-05-22T08:29:02.534Z,7.90
2023-05-22T08:31:30.249Z,9.83
2023-05-22T08:34:02.489Z,8.37
2023-05-22T08:36:31.393Z,9.27
2023-05-22T08:38:58.920Z,7.37
2023-05-22T08:41:27.984Z,8.60
2023-05-22T08:43:55.516Z,9.00
2023-05-22T08:46:26.278Z,9.60
2023-05-22T08:48:56.674Z,9.20
2023-05-22T08:51:28.045Z,8.37
2023-05-22T08:53:57.410Z,10.20
2023-05-22T08:56:26.783Z,9.90
2023-05-22T08:58:58.579Z,9.13
2023-05-22T09:01:26.375Z,8.57
2023-05-22T09:03:54.015Z,8.40
2023-05-22T09:06:21.617Z,9.10
2023-05-22T09:08:51.403Z,9.93
2023-05-22T09:11:19.252Z,8.47
2023-05-22T09:13:46.832Z,8.83
2023-05-22T09:16:16.469Z,9.10
2023-05-22T09:18:44.239Z,9.00
2023-05-22T09:21:28.878Z,8.67
2023-05-22T09:24:01.026Z,8.63
2023-05-22T09:26:29.124Z,9.37
2023-05-22T09:28:57.080Z,9.50
2023-05-22T09:31:26.126Z,8.43
2023-05-22T09:33:54.298Z,9.10
2023-05-22T09:36:22.020Z,9.90
2023-05-22T09:38:49.649Z,10.30
2023-05-22T09:41:22.140Z,9.60
2023-05-22T09:43:51.253Z,9.93
2023-05-22T09:46:18.842Z,9.53
2023-05-22T09:48:52.384Z,10.10
2023-05-22T09:51:21.060Z,8.10
2023-05-22T09:53:49.950Z,8.70
2023-05-22T09:56:30.757Z,7.93
2023-05-22T09:59:06.614Z,9.37
2023-05-22T10:01:34.790Z,10.23
2023-05-22T10:04:03.825Z,8.10
2023-05-22T10:06:33.893Z,8.30
2023-05-22T10:09:05.865Z,9.20
2023-05-22T10:11:34.081Z,9.63
2023-05-22T10:14:02.757Z,9.70
2023-05-22T10:16:31.216Z,9.37
2023-05-22T10:18:59.096Z,9.33
2023-05-22T10:21:29.233Z,9.83
2023-05-22T10:23:56.811Z,10.07
2023-05-22T10:26:24.917Z,9.70
2023-05-22T10:28:54.473Z,8.87
2023-05-22T10:31:28.212Z,9.40
2023-05-22T10:33:58.361Z,8.80
2023-05-22T10:36:38.196Z,8.90
2023-05-22T10:39:13.466Z,8.60
2023-05-22T10:41:41.209Z,8.10
2023-05-22T10:44:08.724Z,9.03
2023-05-22T10:46:37.312Z,9.30
2023-05-22T10:49:04.850Z,8.50
2023-05-22T10:51:35.233Z,8.80
2023-05-22T10:54:05.183Z,8.93
2023-05-22T10:56:36.203Z,8.80
2023-05-22T10:59:07.314Z,8.00
2023-05-22T11:01:37.844Z,9.73
2023-05-22T11:04:12.539Z,9.80
2023-05-22T11:06:42.476Z,9.70
2023-05-22T11:09:29.112Z,9.17
2023-05-22T11:12:16.896Z,9.27
2023-05-22T11:14:48.559Z,9.70
2023-05-22T11:17:18.776Z,9.57
2023-05-22T11:19:50.175Z,9.80
2023-05-22T11:22:19.804Z,9.37
2023-05-22T11:24:47.358Z,9.47
2023-05-22T11:27:15.131Z,9.00
2023-05-22T11:29:44.394Z,9.37
2023-05-22T11:32:12.069Z,10.10
2023-05-22T11:34:40.635Z,8.43
2023-05-22T11:37:08.493Z,9.40
2023-05-22T11:39:37.348Z,9.33
2023-05-22T11:42:05.318Z,8.97
2023-05-22T11:44:32.869Z,9.87
2023-05-22T11:47:00.643Z,9.70
2023-05-22T11:49:28.966Z,9.10
2023-05-22T11:51:56.475Z,9.03
2023-05-22T11:54:23.979Z,8.40
2023-05-22T11:56:52.906Z,9.40
2023-05-22T11:59:22.229Z,9.47
2023-05-22T12:01:50.439Z,10.10
2023-05-22T12:04:18.082Z,9.43
2023-05-22T12:06:45.762Z,9.97
2023-05-22T12:09:13.341Z,10.17
2023-05-22T12:11:40.948Z,9.97
2023-05-22T12:14:12.570Z,9.57
2023-05-22T12:16:40.675Z,10.50
2023-05-22T12:19:08.811Z,10.07
2023-05-22T12:21:36.634Z,9.30
2023-05-22T12:24:05.669Z,10.00
2023-05-22T12:26:33.693Z,9.57
2023-05-22T12:29:01.408Z,8.83
2023-05-22T12:31:35.774Z,8.67
2023-05-22T12:34:05.205Z,9.23
2023-05-22T12:36:34.845Z,8.73
2023-05-22T12:39:03.653Z,9.67
2023-05-22T12:41:31.181Z,9.60
2023-05-22T12:43:58.704Z,8.63
2023-05-22T12:46:26.264Z,9.37
2023-05-22T12:48:55.377Z,8.33
2023-05-22T12:51:24.047Z,8.40
2023-05-22T12:53:51.604Z,8.60
2023-05-22T12:56:19.150Z,9.00
2023-05-22T12:58:46.678Z,8.60
2023-05-22T13:01:14.319Z,7.30
2023-05-22T13:03:41.926Z,7.67
2023-05-22T13:06:12.199Z,8.13
2023-05-22T13:08:39.759Z,8.00
2023-05-22T13:11:07.304Z,7.93
2023-05-22T13:13:34.871Z,7.87
2023-05-22T13:16:02.725Z,9.03
2023-05-22T13:18:30.517Z,8.80
2023-05-22T13:20:59.952Z,8.33
2023-05-22T13:23:28.909Z,8.10
2023-05-22T13:25:56.426Z,7.57
2023-05-22T13:28:23.979Z,8.70
2023-05-22T13:30:51.459Z,8.50
2023-05-22T13:33:18.991Z,8.40
2023-05-22T13:35:46.578Z,8.83
2023-05-22T13:38:14.116Z,7.93
2023-05-22T13:40:42.983Z,8.30
2023-05-22T13:43:10.500Z,9.00
2023-05-22T13:45:38.222Z,8.43
2023-05-22T13:48:05.993Z,8.67
2023-05-22T13:50:33.521Z,7.83
2023-05-22T13:53:01.073Z,8.67
2023-05-22T13:55:28.721Z,7.60
2023-05-22T13:57:57.585Z,7.77
2023-05-22T14:00:25.195Z,7.47
2023-05-22T14:02:52.861Z,7.17
2023-05-22T14:05:20.763Z,7.30
2023-05-22T14:07:48.304Z,7.00
2023-05-22T14:10:16.089Z,7.13
2023-05-22T14:12:43.608Z,6.50
2023-05-22T14:15:12.863Z,7.33
2023-05-22T14:17:40.351Z,6.73
2023-05-22T14:20:08.819Z,7.03
2023-05-22T14:22:47.901Z,7.47
2023-05-22T14:25:23.797Z,6.83
2023-05-22T14:27:51.353Z,6.60
2023-05-22T14:30:20.315Z,6.90
2023-05-22T14:32:48.671Z,6.70
2023-05-22T14:35:16.526Z,7.50
2023-05-22T14:37:44.749Z,6.50
2023-05-22T14:40:12.654Z,7.93
2023-05-22T14:42:40.166Z,7.40
2023-05-22T14:45:08.595Z,8.07
2023-05-22T14:47:37.457Z,8.70
2023-05-22T14:50:18.175Z,7.30
2023-05-22T14:52:47.001Z,8.20
2023-05-22T14:55:14.521Z,8.70
2023-05-22T14:57:42.042Z,8.80
2023-05-22T15:00:10.833Z,9.23
2023-05-22T15:02:40.100Z,10.10
2023-05-22T15:05:08.349Z,10.37
2023-05-22T15:07:43.973Z,8.80
2023-05-22T15:10:12.968Z,9.63
2023-05-22T15:12:40.762Z,10.40
2023-05-22T15:15:09.566Z,10.00
2023-05-22T15:17:37.154Z,9.73
2023-05-22T15:20:07.624Z,10.10
2023-05-22T15:22:35.186Z,9.53
2023-05-22T15:25:06.215Z,9.20
2023-05-22T15:27:34.569Z,9.33
2023-05-22T15:30:02.324Z,9.63
2023-05-22T15:32:30.656Z,9.40
2023-05-22T15:34:58.519Z,10.20
2023-05-22T15:37:29.164Z,9.40
2023-05-22T15:39:58.383Z,9.00
2023-05-22T15:42:25.908Z,8.83
2023-05-22T15:44:53.450Z,10.50
2023-05-22T15:47:21.039Z,9.20
2023-05-22T15:49:48.588Z,10.30
2023-05-22T15:52:16.315Z,10.23
2023-05-22T15:54:45.196Z,9.90
2023-05-22T15:57:12.692Z,10.80
2023-05-22T15:59:40.270Z,10.17
2023-05-22T16:02:08.428Z,9.87
2023-05-22T16:04:36.100Z,10.23
2023-05-22T16:07:03.788Z,10.87
2023-05-22T16:09:32.756Z,10.10
2023-05-22T16:12:01.893Z,10.77
2023-05-22T16:14:29.464Z,11.70
2023-05-22T16:16:57.614Z,10.77
2023-05-22T16:19:25.229Z,10.80
2023-05-22T16:21:52.847Z,10.17
2023-05-22T16:24:20.415Z,10.07
2023-05-22T16:26:47.956Z,9.77
2023-05-22T16:29:20.343Z,10.57
2023-05-22T16:31:47.892Z,10.10
2023-05-22T16:34:15.496Z,10.67
2023-05-22T16:36:43.146Z,10.67
2023-05-22T16:39:10.833Z,11.87
2023-05-22T16:41:38.679Z,14.83
2023-05-22T16:44:06.276Z,15.00
2023-05-22T16:46:35.327Z,14.67
2023-05-22T16:49:03.030Z,16.03
2023-05-22T16:51:30.812Z,17.97
2023-05-22T16:53:58.336Z,18.70
2023-05-22T16:56:25.948Z,17.90
2023-05-22T16:58:53.453Z,18.00
2023-05-22T17:01:21.833Z,19.47
2023-05-22T17:03:50.969Z,18.10
2023-05-22T17:06:20.926Z,18.80
2023-05-22T17:08:48.792Z,20.10
2023-05-22T17:11:16.334Z,16.57
2023-05-22T17:13:43.956Z,14.63
2023-05-22T17:16:11.492Z,13.93
2023-05-22T17:18:39.078Z,15.30
2023-05-22T17:21:09.069Z,14.87
2023-05-22T17:23:37.233Z,14.70
2023-05-22T17:26:05.003Z,16.87
2023-05-22T17:28:32.628Z,16.00
2023-05-22T17:31:01.607Z,14.80
2023-05-22T17:33:29.253Z,14.60
2023-05-22T17:35:56.799Z,10.70
2023-05-22T17:38:26.076Z,10.90
2023-05-22T17:40:53.772Z,10.13
2023-05-22T17:43:21.465Z,10.43
2023-05-22T17:45:50.715Z,10.13
2023-05-22T17:48:23.313Z,10.20
2023-05-22T17:50:51.991Z,11.40
2023-05-22T17:53:20.573Z,9.97
2023-05-22T17:55:52.157Z,10.70
2023-05-22T17:58:20.490Z,11.10
2023-05-22T18:00:48.932Z,11.27
2023-05-22T18:03:20.121Z,11.97
2023-05-22T18:05:48.223Z,10.53
2023-05-22T18:08:16.004Z,8.77
2023-05-22T18:10:43.753Z,8.70
2023-05-22T18:13:12.688Z,8.13
2023-05-22T18:15:40.645Z,9.37
2023-05-22T18:18:09.555Z,8.70
2023-05-22T18:20:38.755Z,7.93
2023-05-22T18:23:06.474Z,8.93
2023-05-22T18:25:33.996Z,8.03
2023-05-22T18:28:01.534Z,9.80
2023-05-22T18:30:30.496Z,8.00
2023-05-22T18:32:58.115Z,8.23
2023-05-22T18:35:25.791Z,8.60
2023-05-22T18:37:53.562Z,7.60
2023-05-22T18:40:21.161Z,7.37
2023-05-22T18:42:48.719Z,8.40
2023-05-22T18:45:16.304Z,8.10
2023-05-22T18:47:45.222Z,8.90
2023-05-22T18:50:13.301Z,8.80
2023-05-22T18:55:09.092Z,9.47
2023-05-22T18:57:36.869Z,10.20
2023-05-22T19:00:04.913Z,10.13
2023-05-22T19:02:32.473Z,9.83
2023-05-22T19:05:01.472Z,10.20
2023-05-22T19:07:29.074Z,9.97
2023-05-22T19:09:56.604Z,9.30
2023-05-22T19:12:24.683Z,9.37
2023-05-22T19:14:52.451Z,9.80
2023-05-22T19:17:19.978Z,9.23
2023-05-22T19:19:47.539Z,9.53
2023-05-22T19:22:18.070Z,9.53
2023-05-22T19:24:45.747Z,9.90
2023-05-22T19:27:13.328Z,10.00
2023-05-22T19:29:40.875Z,9.90
2023-05-22T19:32:08.510Z,12.10
2023-05-22T19:34:36.163Z,12.47
2023-05-22T19:37:03.874Z,12.57
2023-05-22T19:39:32.889Z,13.67
2023-05-22T19:42:00.579Z,12.87
2023-05-22T19:44:28.064Z,12.03
2023-05-22T19:46:56.582Z,11.90
2023-05-22T19:49:24.225Z,13.60
2023-05-22T19:51:53.028Z,13.53
2023-05-22T19:54:22.367Z,14.10
2023-05-22T19:56:51.270Z,14.03
2023-05-22T19:59:18.828Z,14.90
2023-05-22T20:01:46.511Z,12.07
2023-05-22T20:04:14.298Z,12.17
2023-05-22T20:06:42.120Z,12.03
2023-05-22T20:09:10.091Z,13.63
2023-05-22T20:11:37.903Z,14.60
2023-05-22T20:14:07.593Z,13.20
2023-05-22T20:16:35.225Z,12.97
2023-05-22T20:19:03.761Z,12.60
2023-05-22T20:21:32.096Z,12.00
2023-05-22T20:23:59.650Z,13.80
2023-05-22T20:26:27.638Z,15.40
2023-05-22T20:28:55.221Z,15.67
2023-05-22T20:31:24.148Z,16.37
2023-05-22T20:33:51.671Z,15.73
2023-05-22T20:36:19.201Z,17.77
2023-05-22T20:38:46.721Z,19.00
2023-05-22T20:41:14.228Z,17.33
2023-05-22T20:43:43.205Z,16.53
2023-05-22T20:46:11.365Z,18.87
2023-05-22T20:48:46.651Z,16.40
2023-05-22T20:51:15.516Z,16.43
2023-05-22T20:53:43.049Z,15.07
2023-05-22T20:56:10.625Z,16.00
2023-05-22T20:58:39.174Z,15.07
2023-05-22T21:01:06.976Z,17.27
2023-05-22T21:03:34.491Z,18.73
2023-05-22T21:06:03.544Z,16.33
2023-05-22T21:08:31.111Z,17.50
2023-05-22T21:10:58.648Z,19.87
2023-05-22T21:13:26.180Z,19.80
2023-05-22T21:15:53.749Z,22.13
2023-05-22T21:18:21.939Z,21.83
2023-05-22T21:20:49.477Z,24.37
2023-05-22T21:23:18.341Z,23.10
2023-05-22T21:25:45.867Z,29.37
2023-05-22T21:28:13.486Z,29.27
2023-05-22T21:30:41.473Z,28.33
2023-05-22T21:33:09.273Z,31.63
2023-05-22T21:35:37.064Z,30.90
2023-05-22T21:38:04.585Z,27.97
2023-05-22T21:40:33.456Z,33.00
2023-05-22T21:43:01.023Z,31.13
2023-05-22T21:45:28.593Z,32.40
2023-05-22T21:47:56.193Z,33.13
2023-05-22T21:50:23.726Z,32.60
2023-05-22T21:52:51.287Z,31.40
2023-05-22T21:55:18.757Z,33.70
2023-05-22T21:57:47.650Z,35.90
2023-05-22T22:00:17.124Z,35.03
2023-05-22T22:02:44.737Z,35.60
2023-05-22T22:05:12.556Z,35.47
2023-05-22T22:07:40.077Z,35.17
2023-05-22T22:10:08.632Z,37.10
2023-05-22T22:12:36.160Z,36.17
2023-05-22T22:15:05.490Z,38.67
2023-05-22T22:17:34.759Z,36.90
2023-05-22T22:20:02.465Z,36.17
2023-05-22T22:22:30.119Z,36.27
2023-05-22T22:24:57.698Z,35.73
2023-05-22T22:27:25.449Z,36.53
2023-05-22T22:29:52.993Z,35.43
2023-05-22T22:32:21.891Z,35.37
2023-05-22T22:34:53.618Z,36.07
2023-05-22T22:37:21.924Z,34.40
2023-05-22T22:39:49.442Z,36.77
2023-05-22T22:42:16.940Z,34.27
2023-05-22T22:44:44.551Z,33.83
2023-05-22T22:47:12.322Z,33.07
2023-05-22T22:49:41.284Z,34.87
2023-05-22T22:52:08.780Z,31.50
2023-05-22T22:54:36.372Z,30.63
2023-05-22T22:57:04.026Z,34.53
2023-05-22T22:59:31.764Z,32.90
2023-05-22T23:01:59.550Z,31.70
2023-05-22T23:04:29.517Z,34.53
2023-05-22T23:06:58.561Z,35.67
2023-05-22T23:09:26.315Z,35.30
2023-05-22T23:11:53.814Z,34.03
2023-05-22T23:14:21.344Z,36.57
2023-05-22T23:16:48.994Z,33.87
2023-05-22T23:19:16.498Z,34.50
2023-05-22T23:21:44.104Z,35.80
2023-05-22T23:24:12.968Z,34.33
2023-05-22T23:26:40.520Z,32.77
2023-05-22T23:29:08.147Z,33.97
2023-05-22T23:31:36.480Z,34.53
2023-05-22T23:34:04.073Z,33.63
2023-05-22T23:36:32.515Z,33.00
2023-05-22T23:39:00.033Z,33.70
2023-05-22T23:41:28.958Z,35.43
2023-05-22T23:43:56.589Z,32.90
2023-05-22T23:46:24.276Z,28.37
2023-05-22T23:48:52.074Z,31.60
2023-05-22T23:51:19.767Z,30.80
2023-05-22T23:53:47.263Z,28.00
2023-05-22T23:56:14.805Z,29.03
2023-05-22T23:58:43.614Z,28.77
